sensor_id;sensor_type;location;lat;lon;timestamp;P1;durP1;ratioP1;P2;durP2;ratioP2
40781;SDS011;26493;51.938;7.626;2023-06-04T00:00:50;17.02;;;9.23;;
40781;SDS011;26493;51.938;7.626;2023-06-04T00:03:16;17.35;;;8.45;;
40781;SDS011;26493;51.938;7.626;2023-06-04T00:05:42;20.00;;;8.80;;
40781;SDS011;26493;51.938;7.626;2023-06-04T00:08:08;16.35;;;8.80;;
40781;SDS011;26493;51.938;7.626;2023-06-04T00:10:34;15.43;;;9.00;;
40781;SDS011;26493;51.938;7.626;2023-06-04T00:13:00;15.25;;;9.10;;
40781;SDS011;26493;51.938;7.626;2023-06-04T00:15:26;15.50;;;9.27;;
40781;SDS011;26493;51.938;7.626;2023-06-04T00:17:52;18.27;;;8.85;;
40781;SDS011;26493;51.938;7.626;2023-06-04T00:20:19;15.23;;;8.73;;
40781;SDS011;26493;51.938;7.626;2023-06-04T00:22:45;16.90;;;8.50;;
40781;SDS011;26493;51.938;7.626;2023-06-04T00:25:11;15.82;;;8.57;;
40781;SDS011;26493;51.938;7.626;2023-06-04T00:27:37;15.40;;;8.70;;
40781;SDS011;26493;51.938;7.626;2023-06-04T00:30:03;17.33;;;9.30;;
40781;SDS011;26493;51.938;7.626;2023-06-04T00:32:29;16.27;;;8.82;;
40781;SDS011;26493;51.938;7.626;2023-06-04T00:34:56;16.35;;;9.05;;
40781;SDS011;26493;51.938;7.626;2023-06-04T00:37:27;14.98;;;8.93;;
40781;SDS011;26493;51.938;7.626;2023-06-04T00:39:56;15.60;;;8.40;;
40781;SDS011;26493;51.938;7.626;2023-06-04T00:42:22;16.63;;;8.57;;
40781;SDS011;26493;51.938;7.626;2023-06-04T00:44:49;18.63;;;9.30;;
40781;SDS011;26493;51.938;7.626;2023-06-04T00:47:15;16.33;;;8.55;;
40781;SDS011;26493;51.938;7.626;2023-06-04T00:49:41;16.80;;;8.45;;
40781;SDS011;26493;51.938;7.626;2023-06-04T00:52:08;15.38;;;8.45;;
40781;SDS011;26493;51.938;7.626;2023-06-04T00:54:34;17.38;;;8.90;;
40781;SDS011;26493;51.938;7.626;2023-06-04T00:57:01;16.40;;;8.90;;
40781;SDS011;26493;51.938;7.626;2023-06-04T00:59:28;14.98;;;8.02;;
40781;SDS011;26493;51.938;7.626;2023-06-04T01:04:32;15.88;;;8.50;;
40781;SDS011;26493;51.938;7.626;2023-06-04T01:07:00;16.02;;;7.88;;
40781;SDS011;26493;51.938;7.626;2023-06-04T01:09:29;16.35;;;8.63;;
40781;SDS011;26493;51.938;7.626;2023-06-04T01:11:58;15.05;;;8.23;;
40781;SDS011;26493;51.938;7.626;2023-06-04T01:14:26;19.38;;;8.75;;
40781;SDS011;26493;51.938;7.626;2023-06-04T01:22:03;17.02;;;8.30;;
40781;SDS011;26493;51.938;7.626;2023-06-04T01:24:31;15.32;;;8.20;;
40781;SDS011;26493;51.938;7.626;2023-06-04T01:27:01;16.38;;;8.27;;
40781;SDS011;26493;51.938;7.626;2023-06-04T01:29:28;14.27;;;8.30;;
40781;SDS011;26493;51.938;7.626;2023-06-04T01:31:55;16.50;;;8.10;;
40781;SDS011;26493;51.938;7.626;2023-06-04T01:34:21;16.40;;;7.90;;
40781;SDS011;26493;51.938;7.626;2023-06-04T01:36:47;15.55;;;7.90;;
40781;SDS011;26493;51.938;7.626;2023-06-04T01:39:13;14.45;;;8.05;;
40781;SDS011;26493;51.938;7.626;2023-06-04T01:41:39;15.55;;;7.70;;
40781;SDS011;26493;51.938;7.626;2023-06-04T01:44:05;15.48;;;7.80;;
40781;SDS011;26493;51.938;7.626;2023-06-04T01:46:31;17.40;;;8.20;;
40781;SDS011;26493;51.938;7.626;2023-06-04T01:48:57;15.75;;;7.88;;
40781;SDS011;26493;51.938;7.626;2023-06-04T01:51:23;15.05;;;8.10;;
40781;SDS011;26493;51.938;7.626;2023-06-04T01:53:49;15.93;;;7.40;;
40781;SDS011;26493;51.938;7.626;2023-06-04T01:56:15;13.98;;;7.50;;
40781;SDS011;26493;51.938;7.626;2023-06-04T01:58:41;15.68;;;7.63;;
40781;SDS011;26493;51.938;7.626;2023-06-04T02:01:07;15.38;;;7.70;;
40781;SDS011;26493;51.938;7.626;2023-06-04T02:03:34;16.52;;;7.68;;
40781;SDS011;26493;51.938;7.626;2023-06-04T02:06:02;16.45;;;7.63;;
40781;SDS011;26493;51.938;7.626;2023-06-04T02:08:28;14.63;;;7.30;;
40781;SDS011;26493;51.938;7.626;2023-06-04T02:10:55;14.48;;;7.30;;
40781;SDS011;26493;51.938;7.626;2023-06-04T02:13:21;14.70;;;7.57;;
40781;SDS011;26493;51.938;7.626;2023-06-04T02:15:47;15.45;;;7.68;;
40781;SDS011;26493;51.938;7.626;2023-06-04T02:18:17;16.10;;;7.50;;
40781;SDS011;26493;51.938;7.626;2023-06-04T02:20:46;16.52;;;7.47;;
40781;SDS011;26493;51.938;7.626;2023-06-04T02:23:13;14.90;;;7.32;;
40781;SDS011;26493;51.938;7.626;2023-06-04T02:25:39;17.92;;;7.20;;
40781;SDS011;26493;51.938;7.626;2023-06-04T02:28:06;14.90;;;7.40;;
40781;SDS011;26493;51.938;7.626;2023-06-04T02:30:32;14.68;;;6.95;;
40781;SDS011;26493;51.938;7.626;2023-06-04T02:32:58;15.02;;;7.57;;
40781;SDS011;26493;51.938;7.626;2023-06-04T02:35:26;14.68;;;6.63;;
40781;SDS011;26493;51.938;7.626;2023-06-04T02:37:52;14.35;;;6.82;;
40781;SDS011;26493;51.938;7.626;2023-06-04T02:40:18;14.57;;;6.50;;
40781;SDS011;26493;51.938;7.626;2023-06-04T02:42:44;15.05;;;6.60;;
40781;SDS011;26493;51.938;7.626;2023-06-04T02:45:10;15.02;;;6.95;;
40781;SDS011;26493;51.938;7.626;2023-06-04T02:47:37;13.73;;;6.75;;
40781;SDS011;26493;51.938;7.626;2023-06-04T02:50:03;13.98;;;6.93;;
40781;SDS011;26493;51.938;7.626;2023-06-04T02:52:29;14.65;;;7.40;;
40781;SDS011;26493;51.938;7.626;2023-06-04T02:54:56;14.85;;;6.82;;
40781;SDS011;26493;51.938;7.626;2023-06-04T02:57:22;15.13;;;6.68;;
40781;SDS011;26493;51.938;7.626;2023-06-04T02:59:48;14.43;;;7.00;;
40781;SDS011;26493;51.938;7.626;2023-06-04T03:02:14;14.93;;;6.97;;
40781;SDS011;26493;51.938;7.626;2023-06-04T03:04:42;16.38;;;7.25;;
40781;SDS011;26493;51.938;7.626;2023-06-04T03:09:36;15.80;;;7.45;;
40781;SDS011;26493;51.938;7.626;2023-06-04T03:12:02;17.15;;;8.05;;
40781;SDS011;26493;51.938;7.626;2023-06-04T03:14:29;15.20;;;6.90;;
40781;SDS011;26493;51.938;7.626;2023-06-04T03:17:01;16.10;;;7.30;;
40781;SDS011;26493;51.938;7.626;2023-06-04T03:19:35;14.27;;;7.07;;
40781;SDS011;26493;51.938;7.626;2023-06-04T03:22:01;15.38;;;7.22;;
40781;SDS011;26493;51.938;7.626;2023-06-04T03:24:31;16.80;;;7.60;;
40781;SDS011;26493;51.938;7.626;2023-06-04T03:26:57;18.17;;;8.27;;
40781;SDS011;26493;51.938;7.626;2023-06-04T03:29:23;14.15;;;6.93;;
40781;SDS011;26493;51.938;7.626;2023-06-04T03:31:49;15.13;;;7.25;;
40781;SDS011;26493;51.938;7.626;2023-06-04T03:34:15;15.52;;;7.10;;
40781;SDS011;26493;51.938;7.626;2023-06-04T03:36:41;15.00;;;7.65;;
40781;SDS011;26493;51.938;7.626;2023-06-04T03:39:07;16.35;;;7.65;;
40781;SDS011;26493;51.938;7.626;2023-06-04T03:41:33;15.88;;;7.30;;
40781;SDS011;26493;51.938;7.626;2023-06-04T03:43:59;15.38;;;6.65;;
40781;SDS011;26493;51.938;7.626;2023-06-04T03:46:25;15.18;;;6.97;;
40781;SDS011;26493;51.938;7.626;2023-06-04T03:48:53;14.18;;;7.07;;
40781;SDS011;26493;51.938;7.626;2023-06-04T03:51:19;16.15;;;6.95;;
40781;SDS011;26493;51.938;7.626;2023-06-04T03:53:45;17.10;;;7.60;;
40781;SDS011;26493;51.938;7.626;2023-06-04T03:56:11;16.20;;;7.78;;
40781;SDS011;26493;51.938;7.626;2023-06-04T03:58:39;16.05;;;7.50;;
40781;SDS011;26493;51.938;7.626;2023-06-04T04:01:05;16.20;;;8.05;;
40781;SDS011;26493;51.938;7.626;2023-06-04T04:03:31;15.73;;;7.80;;
40781;SDS011;26493;51.938;7.626;2023-06-04T04:06:00;17.48;;;7.70;;
40781;SDS011;26493;51.938;7.626;2023-06-04T04:08:26;16.30;;;7.30;;
40781;SDS011;26493;51.938;7.626;2023-06-04T04:10:56;15.70;;;7.65;;
40781;SDS011;26493;51.938;7.626;2023-06-04T04:13:22;15.95;;;7.97;;
40781;SDS011;26493;51.938;7.626;2023-06-04T04:15:48;17.13;;;7.65;;
40781;SDS011;26493;51.938;7.626;2023-06-04T04:18:17;15.82;;;7.55;;
40781;SDS011;26493;51.938;7.626;2023-06-04T04:20:45;17.98;;;7.88;;
40781;SDS011;26493;51.938;7.626;2023-06-04T04:23:11;17.95;;;7.70;;
40781;SDS011;26493;51.938;7.626;2023-06-04T04:25:37;16.95;;;7.53;;
40781;SDS011;26493;51.938;7.626;2023-06-04T04:28:03;18.50;;;7.45;;
40781;SDS011;26493;51.938;7.626;2023-06-04T04:30:33;15.35;;;7.55;;
40781;SDS011;26493;51.938;7.626;2023-06-04T04:33:00;16.90;;;8.23;;
40781;SDS011;26493;51.938;7.626;2023-06-04T04:35:26;15.85;;;7.95;;
40781;SDS011;26493;51.938;7.626;2023-06-04T04:37:53;17.00;;;7.80;;
40781;SDS011;26493;51.938;7.626;2023-06-04T04:40:19;15.43;;;8.63;;
40781;SDS011;26493;51.938;7.626;2023-06-04T04:42:45;15.50;;;8.20;;
40781;SDS011;26493;51.938;7.626;2023-06-04T04:45:11;16.50;;;9.05;;
40781;SDS011;26493;51.938;7.626;2023-06-04T04:47:38;15.35;;;7.88;;
40781;SDS011;26493;51.938;7.626;2023-06-04T04:50:04;18.13;;;9.20;;
40781;SDS011;26493;51.938;7.626;2023-06-04T04:52:30;15.13;;;8.52;;
40781;SDS011;26493;51.938;7.626;2023-06-04T04:54:56;15.45;;;8.40;;
40781;SDS011;26493;51.938;7.626;2023-06-04T04:57:25;18.70;;;11.65;;
40781;SDS011;26493;51.938;7.626;2023-06-04T04:59:51;18.33;;;9.18;;
40781;SDS011;26493;51.938;7.626;2023-06-04T05:02:17;15.10;;;8.50;;
40781;SDS011;26493;51.938;7.626;2023-06-04T05:04:43;15.88;;;9.07;;
40781;SDS011;26493;51.938;7.626;2023-06-04T05:07:09;16.25;;;8.93;;
40781;SDS011;26493;51.938;7.626;2023-06-04T05:09:35;17.05;;;9.20;;
40781;SDS011;26493;51.938;7.626;2023-06-04T05:12:01;16.65;;;9.80;;
40781;SDS011;26493;51.938;7.626;2023-06-04T05:14:27;17.38;;;10.15;;
40781;SDS011;26493;51.938;7.626;2023-06-04T05:16:54;17.35;;;9.15;;
40781;SDS011;26493;51.938;7.626;2023-06-04T05:19:23;16.90;;;10.23;;
40781;SDS011;26493;51.938;7.626;2023-06-04T05:21:49;22.63;;;9.45;;
40781;SDS011;26493;51.938;7.626;2023-06-04T05:24:16;16.90;;;9.85;;
40781;SDS011;26493;51.938;7.626;2023-06-04T05:26:42;18.25;;;11.60;;
40781;SDS011;26493;51.938;7.626;2023-06-04T05:29:08;18.50;;;10.55;;
40781;SDS011;26493;51.938;7.626;2023-06-04T05:31:34;16.27;;;10.13;;
40781;SDS011;26493;51.938;7.626;2023-06-04T05:34:02;22.70;;;14.63;;
40781;SDS011;26493;51.938;7.626;2023-06-04T05:36:29;17.40;;;10.95;;
40781;SDS011;26493;51.938;7.626;2023-06-04T05:38:56;17.20;;;10.27;;
40781;SDS011;26493;51.938;7.626;2023-06-04T05:41:23;15.63;;;9.55;;
40781;SDS011;26493;51.938;7.626;2023-06-04T05:43:49;18.67;;;11.10;;
40781;SDS011;26493;51.938;7.626;2023-06-04T05:46:15;22.90;;;15.02;;
40781;SDS011;26493;51.938;7.626;2023-06-04T05:48:41;22.60;;;15.23;;
40781;SDS011;26493;51.938;7.626;2023-06-04T05:51:07;19.25;;;12.23;;
40781;SDS011;26493;51.938;7.626;2023-06-04T05:53:33;16.30;;;9.95;;
40781;SDS011;26493;51.938;7.626;2023-06-04T05:55:59;16.95;;;10.25;;
40781;SDS011;26493;51.938;7.626;2023-06-04T05:58:25;15.90;;;10.23;;
40781;SDS011;26493;51.938;7.626;2023-06-04T06:00:51;17.95;;;10.30;;
40781;SDS011;26493;51.938;7.626;2023-06-04T06:03:17;17.75;;;10.40;;
40781;SDS011;26493;51.938;7.626;2023-06-04T06:05:44;22.80;;;11.77;;
40781;SDS011;26493;51.938;7.626;2023-06-04T06:08:10;18.40;;;11.93;;
40781;SDS011;26493;51.938;7.626;2023-06-04T06:10:36;17.88;;;11.40;;
40781;SDS011;26493;51.938;7.626;2023-06-04T06:13:02;17.38;;;11.10;;
40781;SDS011;26493;51.938;7.626;2023-06-04T06:15:28;17.95;;;10.48;;
40781;SDS011;26493;51.938;7.626;2023-06-04T06:17:54;21.35;;;11.45;;
40781;SDS011;26493;51.938;7.626;2023-06-04T06:20:20;15.63;;;10.15;;
40781;SDS011;26493;51.938;7.626;2023-06-04T06:22:47;19.55;;;12.30;;
40781;SDS011;26493;51.938;7.626;2023-06-04T06:25:13;16.40;;;10.40;;
40781;SDS011;26493;51.938;7.626;2023-06-04T06:27:40;18.52;;;11.55;;
40781;SDS011;26493;51.938;7.626;2023-06-04T06:30:07;16.83;;;10.48;;
40781;SDS011;26493;51.938;7.626;2023-06-04T06:32:33;17.13;;;9.93;;
40781;SDS011;26493;51.938;7.626;2023-06-04T06:35:00;15.82;;;10.63;;
40781;SDS011;26493;51.938;7.626;2023-06-04T06:37:26;18.38;;;11.68;;
40781;SDS011;26493;51.938;7.626;2023-06-04T06:39:52;17.08;;;11.30;;
40781;SDS011;26493;51.938;7.626;2023-06-04T06:42:17;23.38;;;16.33;;
40781;SDS011;26493;51.938;7.626;2023-06-04T06:44:44;19.98;;;13.43;;
40781;SDS011;26493;51.938;7.626;2023-06-04T06:47:10;16.33;;;10.65;;
40781;SDS011;26493;51.938;7.626;2023-06-04T06:49:40;15.88;;;10.27;;
40781;SDS011;26493;51.938;7.626;2023-06-04T06:52:06;20.15;;;12.40;;
40781;SDS011;26493;51.938;7.626;2023-06-04T06:54:32;16.27;;;10.27;;
40781;SDS011;26493;51.938;7.626;2023-06-04T06:56:58;18.55;;;10.93;;
40781;SDS011;26493;51.938;7.626;2023-06-04T06:59:24;16.23;;;10.52;;
40781;SDS011;26493;51.938;7.626;2023-06-04T07:01:50;18.05;;;11.77;;
40781;SDS011;26493;51.938;7.626;2023-06-04T07:04:17;17.40;;;12.50;;
40781;SDS011;26493;51.938;7.626;2023-06-04T07:06:43;16.23;;;10.88;;
40781;SDS011;26493;51.938;7.626;2023-06-04T07:09:09;16.85;;;10.40;;
40781;SDS011;26493;51.938;7.626;2023-06-04T07:11:35;16.65;;;10.23;;
40781;SDS011;26493;51.938;7.626;2023-06-04T07:14:01;16.90;;;10.63;;
40781;SDS011;26493;51.938;7.626;2023-06-04T07:16:27;19.20;;;11.07;;
40781;SDS011;26493;51.938;7.626;2023-06-04T07:18:53;19.15;;;10.80;;
40781;SDS011;26493;51.938;7.626;2023-06-04T07:21:19;18.80;;;13.20;;
40781;SDS011;26493;51.938;7.626;2023-06-04T07:23:48;15.77;;;10.32;;
40781;SDS011;26493;51.938;7.626;2023-06-04T07:26:16;17.10;;;10.43;;
40781;SDS011;26493;51.938;7.626;2023-06-04T07:28:42;17.98;;;10.50;;
40781;SDS011;26493;51.938;7.626;2023-06-04T07:31:09;16.52;;;10.27;;
40781;SDS011;26493;51.938;7.626;2023-06-04T07:33:35;16.02;;;10.32;;
40781;SDS011;26493;51.938;7.626;2023-06-04T07:36:09;16.90;;;10.60;;
40781;SDS011;26493;51.938;7.626;2023-06-04T07:38:35;15.50;;;10.40;;
40781;SDS011;26493;51.938;7.626;2023-06-04T07:41:01;16.83;;;10.50;;
40781;SDS011;26493;51.938;7.626;2023-06-04T07:43:27;16.67;;;10.40;;
40781;SDS011;26493;51.938;7.626;2023-06-04T07:45:53;16.75;;;11.10;;
40781;SDS011;26493;51.938;7.626;2023-06-04T07:48:19;16.08;;;10.85;;
40781;SDS011;26493;51.938;7.626;2023-06-04T07:50:45;16.92;;;11.35;;
40781;SDS011;26493;51.938;7.626;2023-06-04T07:53:11;17.77;;;11.60;;
40781;SDS011;26493;51.938;7.626;2023-06-04T07:55:37;17.10;;;10.52;;
40781;SDS011;26493;51.938;7.626;2023-06-04T07:58:03;16.30;;;10.90;;
40781;SDS011;26493;51.938;7.626;2023-06-04T08:00:29;15.73;;;10.18;;
40781;SDS011;26493;51.938;7.626;2023-06-04T08:02:56;16.38;;;10.50;;
40781;SDS011;26493;51.938;7.626;2023-06-04T08:05:22;16.10;;;10.90;;
40781;SDS011;26493;51.938;7.626;2023-06-04T08:07:48;19.70;;;10.93;;
40781;SDS011;26493;51.938;7.626;2023-06-04T08:10:14;15.45;;;10.88;;
40781;SDS011;26493;51.938;7.626;2023-06-04T08:12:40;17.50;;;10.90;;
40781;SDS011;26493;51.938;7.626;2023-06-04T08:15:06;16.05;;;10.38;;
40781;SDS011;26493;51.938;7.626;2023-06-04T08:17:33;16.00;;;10.40;;
40781;SDS011;26493;51.938;7.626;2023-06-04T08:20:00;16.15;;;10.60;;
40781;SDS011;26493;51.938;7.626;2023-06-04T08:22:26;18.45;;;10.93;;
40781;SDS011;26493;51.938;7.626;2023-06-04T08:24:54;15.52;;;10.57;;
40781;SDS011;26493;51.938;7.626;2023-06-04T08:27:20;17.10;;;10.73;;
40781;SDS011;26493;51.938;7.626;2023-06-04T08:29:46;15.45;;;10.73;;
40781;SDS011;26493;51.938;7.626;2023-06-04T08:32:12;15.75;;;10.68;;
40781;SDS011;26493;51.938;7.626;2023-06-04T08:34:39;16.48;;;11.02;;
40781;SDS011;26493;51.938;7.626;2023-06-04T08:37:05;16.92;;;11.18;;
40781;SDS011;26493;51.938;7.626;2023-06-04T08:39:31;15.30;;;11.35;;
40781;SDS011;26493;51.938;7.626;2023-06-04T08:42:01;16.25;;;11.18;;
40781;SDS011;26493;51.938;7.626;2023-06-04T08:44:30;17.98;;;10.90;;
40781;SDS011;26493;51.938;7.626;2023-06-04T08:46:58;15.82;;;11.18;;
40781;SDS011;26493;51.938;7.626;2023-06-04T08:49:27;17.50;;;11.57;;
40781;SDS011;26493;51.938;7.626;2023-06-04T08:51:55;17.60;;;11.60;;
40781;SDS011;26493;51.938;7.626;2023-06-04T08:54:21;16.75;;;11.05;;
40781;SDS011;26493;51.938;7.626;2023-06-04T08:56:47;19.00;;;11.57;;
40781;SDS011;26493;51.938;7.626;2023-06-04T08:59:16;14.98;;;11.05;;
40781;SDS011;26493;51.938;7.626;2023-06-04T09:01:43;16.35;;;11.30;;
40781;SDS011;26493;51.938;7.626;2023-06-04T09:04:10;15.77;;;11.55;;
40781;SDS011;26493;51.938;7.626;2023-06-04T09:06:38;18.35;;;11.18;;
40781;SDS011;26493;51.938;7.626;2023-06-04T09:09:05;16.20;;;11.35;;
40781;SDS011;26493;51.938;7.626;2023-06-04T09:11:52;16.10;;;11.10;;
40781;SDS011;26493;51.938;7.626;2023-06-04T09:14:19;16.05;;;10.80;;
40781;SDS011;26493;51.938;7.626;2023-06-04T09:16:46;15.50;;;11.00;;
40781;SDS011;26493;51.938;7.626;2023-06-04T09:19:13;17.98;;;11.50;;
40781;SDS011;26493;51.938;7.626;2023-06-04T09:21:54;16.10;;;10.75;;
40781;SDS011;26493;51.938;7.626;2023-06-04T09:24:21;16.27;;;11.32;;
40781;SDS011;26493;51.938;7.626;2023-06-04T09:26:48;16.70;;;11.30;;
40781;SDS011;26493;51.938;7.626;2023-06-04T09:29:14;16.85;;;11.43;;
40781;SDS011;26493;51.938;7.626;2023-06-04T09:31:41;16.95;;;11.90;;
40781;SDS011;26493;51.938;7.626;2023-06-04T09:34:07;17.85;;;11.70;;
40781;SDS011;26493;51.938;7.626;2023-06-04T09:36:33;15.18;;;11.15;;
40781;SDS011;26493;51.938;7.626;2023-06-04T09:39:00;17.05;;;11.00;;
40781;SDS011;26493;51.938;7.626;2023-06-04T09:41:27;18.38;;;11.20;;
40781;SDS011;26493;51.938;7.626;2023-06-04T09:44:00;17.40;;;11.00;;
40781;SDS011;26493;51.938;7.626;2023-06-04T09:46:28;16.30;;;11.82;;
40781;SDS011;26493;51.938;7.626;2023-06-04T09:49:04;16.70;;;11.85;;
40781;SDS011;26493;51.938;7.626;2023-06-04T09:51:30;19.83;;;14.50;;
40781;SDS011;26493;51.938;7.626;2023-06-04T09:54:01;16.25;;;11.40;;
40781;SDS011;26493;51.938;7.626;2023-06-04T09:56:28;16.15;;;11.60;;
40781;SDS011;26493;51.938;7.626;2023-06-04T09:58:55;18.67;;;10.95;;
40781;SDS011;26493;51.938;7.626;2023-06-04T10:01:22;14.97;;;10.50;;
40781;SDS011;26493;51.938;7.626;2023-06-04T10:03:50;17.75;;;10.65;;
40781;SDS011;26493;51.938;7.626;2023-06-04T10:06:18;15.32;;;10.55;;
40781;SDS011;26493;51.938;7.626;2023-06-04T10:08:45;15.23;;;10.85;;
40781;SDS011;26493;51.938;7.626;2023-06-04T10:11:11;14.93;;;10.57;;
40781;SDS011;26493;51.938;7.626;2023-06-04T10:13:42;17.13;;;10.63;;
40781;SDS011;26493;51.938;7.626;2023-06-04T10:16:11;16.15;;;10.57;;
40781;SDS011;26493;51.938;7.626;2023-06-04T10:18:38;16.53;;;10.97;;
40781;SDS011;26493;51.938;7.626;2023-06-04T10:21:04;17.55;;;11.00;;
40781;SDS011;26493;51.938;7.626;2023-06-04T10:23:32;15.85;;;10.95;;
40781;SDS011;26493;51.938;7.626;2023-06-04T10:25:58;16.70;;;10.88;;
40781;SDS011;26493;51.938;7.626;2023-06-04T10:28:25;17.63;;;11.43;;
40781;SDS011;26493;51.938;7.626;2023-06-04T10:30:51;16.00;;;11.02;;
40781;SDS011;26493;51.938;7.626;2023-06-04T10:33:18;17.02;;;11.00;;
40781;SDS011;26493;51.938;7.626;2023-06-04T10:35:45;17.63;;;10.82;;
40781;SDS011;26493;51.938;7.626;2023-06-04T10:38:12;16.65;;;11.20;;
40781;SDS011;26493;51.938;7.626;2023-06-04T10:40:46;17.30;;;11.13;;
40781;SDS011;26493;51.938;7.626;2023-06-04T10:43:13;16.65;;;12.20;;
40781;SDS011;26493;51.938;7.626;2023-06-04T10:45:40;17.38;;;11.48;;
40781;SDS011;26493;51.938;7.626;2023-06-04T10:48:07;16.13;;;10.65;;
40781;SDS011;26493;51.938;7.626;2023-06-04T10:50:34;14.95;;;10.52;;
40781;SDS011;26493;51.938;7.626;2023-06-04T10:53:00;18.55;;;11.75;;
40781;SDS011;26493;51.938;7.626;2023-06-04T10:55:30;15.20;;;10.88;;
40781;SDS011;26493;51.938;7.626;2023-06-04T10:58:00;16.65;;;11.00;;
40781;SDS011;26493;51.938;7.626;2023-06-04T11:03:06;16.52;;;10.73;;
40781;SDS011;26493;51.938;7.626;2023-06-04T11:08:01;15.15;;;10.90;;
40781;SDS011;26493;51.938;7.626;2023-06-04T11:11:10;16.33;;;11.32;;
40781;SDS011;26493;51.938;7.626;2023-06-04T11:13:23;16.08;;;11.63;;
40781;SDS011;26493;51.938;7.626;2023-06-04T11:15:50;16.48;;;11.30;;
40781;SDS011;26493;51.938;7.626;2023-06-04T11:18:17;15.15;;;11.40;;
40781;SDS011;26493;51.938;7.626;2023-06-04T11:20:47;15.60;;;11.55;;
40781;SDS011;26493;51.938;7.626;2023-06-04T11:23:13;16.63;;;11.32;;
40781;SDS011;26493;51.938;7.626;2023-06-04T11:25:39;16.33;;;11.52;;
40781;SDS011;26493;51.938;7.626;2023-06-04T11:28:08;15.48;;;11.57;;
40781;SDS011;26493;51.938;7.626;2023-06-04T11:30:34;16.17;;;11.38;;
40781;SDS011;26493;51.938;7.626;2023-06-04T11:33:03;16.05;;;11.20;;
40781;SDS011;26493;51.938;7.626;2023-06-04T11:35:30;15.43;;;11.55;;
40781;SDS011;26493;51.938;7.626;2023-06-04T11:37:57;15.90;;;11.60;;
40781;SDS011;26493;51.938;7.626;2023-06-04T11:40:24;15.57;;;11.60;;
40781;SDS011;26493;51.938;7.626;2023-06-04T11:42:51;15.38;;;11.52;;
40781;SDS011;26493;51.938;7.626;2023-06-04T11:45:18;16.08;;;11.90;;
40781;SDS011;26493;51.938;7.626;2023-06-04T11:47:46;20.77;;;12.05;;
40781;SDS011;26493;51.938;7.626;2023-06-04T11:50:12;15.80;;;12.00;;
40781;SDS011;26493;51.938;7.626;2023-06-04T11:52:38;15.73;;;12.07;;
40781;SDS011;26493;51.938;7.626;2023-06-04T11:55:07;16.73;;;12.15;;
40781;SDS011;26493;51.938;7.626;2023-06-04T11:57:33;19.33;;;12.13;;
40781;SDS011;26493;51.938;7.626;2023-06-04T12:00:00;18.80;;;12.30;;
40781;SDS011;26493;51.938;7.626;2023-06-04T12:02:26;16.70;;;12.07;;
40781;SDS011;26493;51.938;7.626;2023-06-04T12:04:52;17.70;;;12.90;;
40781;SDS011;26493;51.938;7.626;2023-06-04T12:07:21;16.23;;;13.00;;
40781;SDS011;26493;51.938;7.626;2023-06-04T12:09:50;15.98;;;12.20;;
40781;SDS011;26493;51.938;7.626;2023-06-04T12:12:21;15.90;;;12.20;;
40781;SDS011;26493;51.938;7.626;2023-06-04T12:14:55;15.63;;;12.15;;
40781;SDS011;26493;51.938;7.626;2023-06-04T12:17:21;19.38;;;11.93;;
40781;SDS011;26493;51.938;7.626;2023-06-04T12:19:48;16.60;;;11.63;;
40781;SDS011;26493;51.938;7.626;2023-06-04T12:22:14;15.57;;;11.82;;
40781;SDS011;26493;51.938;7.626;2023-06-04T12:27:36;15.93;;;12.10;;
40781;SDS011;26493;51.938;7.626;2023-06-04T12:30:13;16.38;;;11.43;;
40781;SDS011;26493;51.938;7.626;2023-06-04T12:32:40;15.38;;;11.70;;
40781;SDS011;26493;51.938;7.626;2023-06-04T12:35:10;17.40;;;11.60;;
40781;SDS011;26493;51.938;7.626;2023-06-04T12:37:36;15.65;;;11.70;;
40781;SDS011;26493;51.938;7.626;2023-06-04T12:40:02;16.60;;;11.90;;
40781;SDS011;26493;51.938;7.626;2023-06-04T12:42:31;17.98;;;12.20;;
40781;SDS011;26493;51.938;7.626;2023-06-04T12:44:58;15.48;;;11.77;;
40781;SDS011;26493;51.938;7.626;2023-06-04T12:47:24;16.88;;;12.07;;
40781;SDS011;26493;51.938;7.626;2023-06-04T12:49:50;16.52;;;11.60;;
40781;SDS011;26493;51.938;7.626;2023-06-04T12:52:17;15.40;;;11.93;;
40781;SDS011;26493;51.938;7.626;2023-06-04T12:54:43;16.67;;;12.00;;
40781;SDS011;26493;51.938;7.626;2023-06-04T12:57:09;16.42;;;12.43;;
40781;SDS011;26493;51.938;7.626;2023-06-04T12:59:35;16.08;;;11.95;;
40781;SDS011;26493;51.938;7.626;2023-06-04T13:02:01;16.27;;;12.30;;
40781;SDS011;26493;51.938;7.626;2023-06-04T13:04:27;16.83;;;12.70;;
40781;SDS011;26493;51.938;7.626;2023-06-04T13:06:53;15.60;;;12.50;;
40781;SDS011;26493;51.938;7.626;2023-06-04T13:09:24;17.25;;;12.50;;
40781;SDS011;26493;51.938;7.626;2023-06-04T13:11:50;16.50;;;12.18;;
40781;SDS011;26493;51.938;7.626;2023-06-04T13:14:16;16.85;;;12.10;;
40781;SDS011;26493;51.938;7.626;2023-06-04T13:16:42;16.67;;;12.30;;
40781;SDS011;26493;51.938;7.626;2023-06-04T13:19:10;16.33;;;12.75;;
40781;SDS011;26493;51.938;7.626;2023-06-04T13:21:36;15.45;;;12.15;;
40781;SDS011;26493;51.938;7.626;2023-06-04T13:24:02;15.77;;;12.10;;
40781;SDS011;26493;51.938;7.626;2023-06-04T13:26:28;16.40;;;12.50;;
40781;SDS011;26493;51.938;7.626;2023-06-04T13:28:54;17.05;;;12.27;;
40781;SDS011;26493;51.938;7.626;2023-06-04T13:31:20;15.70;;;12.13;;
40781;SDS011;26493;51.938;7.626;2023-06-04T13:33:46;15.50;;;12.25;;
40781;SDS011;26493;51.938;7.626;2023-06-04T13:36:12;17.08;;;12.05;;
40781;SDS011;26493;51.938;7.626;2023-06-04T13:38:38;18.10;;;12.65;;
40781;SDS011;26493;51.938;7.626;2023-06-04T13:41:06;15.15;;;12.07;;
40781;SDS011;26493;51.938;7.626;2023-06-04T13:43:32;15.63;;;12.48;;
40781;SDS011;26493;51.938;7.626;2023-06-04T13:45:58;16.63;;;12.50;;
40781;SDS011;26493;51.938;7.626;2023-06-04T13:48:24;16.45;;;12.88;;
40781;SDS011;26493;51.938;7.626;2023-06-04T13:50:50;15.40;;;12.20;;
40781;SDS011;26493;51.938;7.626;2023-06-04T13:53:16;16.45;;;12.10;;
40781;SDS011;26493;51.938;7.626;2023-06-04T13:55:42;18.02;;;12.43;;
40781;SDS011;26493;51.938;7.626;2023-06-04T13:58:08;15.48;;;12.00;;
40781;SDS011;26493;51.938;7.626;2023-06-04T14:00:34;17.40;;;12.43;;
40781;SDS011;26493;51.938;7.626;2023-06-04T14:03:00;15.52;;;12.38;;
40781;SDS011;26493;51.938;7.626;2023-06-04T14:05:26;15.63;;;12.40;;
40781;SDS011;26493;51.938;7.626;2023-06-04T14:07:53;17.08;;;12.50;;
40781;SDS011;26493;51.938;7.626;2023-06-04T14:10:19;15.63;;;12.27;;
40781;SDS011;26493;51.938;7.626;2023-06-04T14:12:45;16.85;;;12.73;;
40781;SDS011;26493;51.938;7.626;2023-06-04T14:15:11;15.40;;;11.90;;
40781;SDS011;26493;51.938;7.626;2023-06-04T14:17:40;16.73;;;12.40;;
40781;SDS011;26493;51.938;7.626;2023-06-04T14:20:06;16.05;;;12.57;;
40781;SDS011;26493;51.938;7.626;2023-06-04T14:22:33;15.68;;;12.55;;
40781;SDS011;26493;51.938;7.626;2023-06-04T14:25:00;16.33;;;12.30;;
40781;SDS011;26493;51.938;7.626;2023-06-04T14:27:26;16.17;;;12.30;;
40781;SDS011;26493;51.938;7.626;2023-06-04T14:29:52;15.65;;;12.40;;
40781;SDS011;26493;51.938;7.626;2023-06-04T14:32:18;17.73;;;12.93;;
40781;SDS011;26493;51.938;7.626;2023-06-04T14:34:44;16.52;;;12.15;;
40781;SDS011;26493;51.938;7.626;2023-06-04T14:37:10;16.08;;;12.65;;
40781;SDS011;26493;51.938;7.626;2023-06-04T14:39:36;16.40;;;12.07;;
40781;SDS011;26493;51.938;7.626;2023-06-04T14:42:02;15.57;;;12.00;;